sensor_id;sensor_type;location;lat;lon;timestamp;P1;durP1;ratioP1;P2;durP2;ratioP2
31594;SDS011;18200;48.726;8.892;2023-03-23T00:01:07;3.13;;;1.60;;
31594;SDS011;18200;48.726;8.892;2023-03-23T00:05:19;3.42;;;1.60;;
31594;SDS011;18200;48.726;8.892;2023-03-23T00:09:19;4.07;;;1.60;;
31594;SDS011;18200;48.726;8.892;2023-03-23T00:13:24;3.25;;;1.48;;
31594;SDS011;18200;48.726;8.892;2023-03-23T00:17:26;2.40;;;1.52;;
31594;SDS011;18200;48.726;8.892;2023-03-23T00:21:29;2.63;;;1.50;;
31594;SDS011;18200;48.726;8.892;2023-03-23T00:25:35;2.90;;;1.60;;
31594;SDS011;18200;48.726;8.892;2023-03-23T00:29:36;4.55;;;1.55;;
31594;SDS011;18200;48.726;8.892;2023-03-23T00:33:36;2.00;;;1.33;;
31594;SDS011;18200;48.726;8.892;2023-03-23T00:37:43;2.28;;;1.50;;
31594;SDS011;18200;48.726;8.892;2023-03-23T00:41:44;3.70;;;1.30;;
31594;SDS011;18200;48.726;8.892;2023-03-23T00:45:45;4.57;;;1.60;;
31594;SDS011;18200;48.726;8.892;2023-03-23T00:49:52;2.95;;;1.40;;
31594;SDS011;18200;48.726;8.892;2023-03-23T00:53:55;3.67;;;1.35;;
31594;SDS011;18200;48.726;8.892;2023-03-23T00:57:56;4.93;;;2.00;;
31594;SDS011;18200;48.726;8.892;2023-03-23T01:01:57;2.45;;;1.48;;
31594;SDS011;18200;48.726;8.892;2023-03-23T01:05:57;1.65;;;1.30;;
31594;SDS011;18200;48.726;8.892;2023-03-23T01:09:57;3.90;;;1.42;;
31594;SDS011;18200;48.726;8.892;2023-03-23T01:14:00;2.88;;;1.50;;
31594;SDS011;18200;48.726;8.892;2023-03-23T01:18:01;2.53;;;1.50;;
31594;SDS011;18200;48.726;8.892;2023-03-23T01:22:03;3.65;;;1.70;;
31594;SDS011;18200;48.726;8.892;2023-03-23T01:26:22;3.67;;;1.80;;
31594;SDS011;18200;48.726;8.892;2023-03-23T01:30:25;5.60;;;2.00;;
31594;SDS011;18200;48.726;8.892;2023-03-23T01:34:26;3.17;;;1.70;;
31594;SDS011;18200;48.726;8.892;2023-03-23T01:38:26;2.72;;;1.60;;
31594;SDS011;18200;48.726;8.892;2023-03-23T01:42:31;4.18;;;1.60;;
31594;SDS011;18200;48.726;8.892;2023-03-23T01:46:35;2.85;;;1.63;;
31594;SDS011;18200;48.726;8.892;2023-03-23T01:50:37;3.63;;;1.40;;
31594;SDS011;18200;48.726;8.892;2023-03-23T01:54:47;3.40;;;1.85;;
31594;SDS011;18200;48.726;8.892;2023-03-23T01:58:50;2.72;;;1.60;;
31594;SDS011;18200;48.726;8.892;2023-03-23T02:02:50;3.20;;;1.70;;
31594;SDS011;18200;48.726;8.892;2023-03-23T02:06:55;8.07;;;2.20;;
31594;SDS011;18200;48.726;8.892;2023-03-23T02:10:59;5.40;;;2.25;;
31594;SDS011;18200;48.726;8.892;2023-03-23T02:15:01;4.18;;;2.05;;
31594;SDS011;18200;48.726;8.892;2023-03-23T02:23:58;7.82;;;2.42;;
31594;SDS011;18200;48.726;8.892;2023-03-23T02:28:30;3.95;;;2.08;;
31594;SDS011;18200;48.726;8.892;2023-03-23T02:33:34;3.03;;;1.90;;
31594;SDS011;18200;48.726;8.892;2023-03-23T02:41:58;3.20;;;2.33;;
31594;SDS011;18200;48.726;8.892;2023-03-23T02:46:04;4.05;;;2.33;;
31594;SDS011;18200;48.726;8.892;2023-03-23T02:50:07;3.83;;;1.80;;
31594;SDS011;18200;48.726;8.892;2023-03-23T02:54:11;3.78;;;2.10;;
31594;SDS011;18200;48.726;8.892;2023-03-23T02:58:15;3.80;;;2.20;;
31594;SDS011;18200;48.726;8.892;2023-03-23T03:02:17;2.78;;;2.20;;
31594;SDS011;18200;48.726;8.892;2023-03-23T03:11:19;5.93;;;2.40;;
31594;SDS011;18200;48.726;8.892;2023-03-23T03:19:42;4.38;;;2.33;;
31594;SDS011;18200;48.726;8.892;2023-03-23T03:23:47;5.60;;;2.47;;
31594;SDS011;18200;48.726;8.892;2023-03-23T03:27:49;5.57;;;2.17;;
31594;SDS011;18200;48.726;8.892;2023-03-23T03:32:00;3.58;;;2.10;;
31594;SDS011;18200;48.726;8.892;2023-03-23T03:36:06;3.33;;;2.13;;
31594;SDS011;18200;48.726;8.892;2023-03-23T03:40:11;7.43;;;2.30;;
31594;SDS011;18200;48.726;8.892;2023-03-23T03:44:16;3.90;;;2.08;;
31594;SDS011;18200;48.726;8.892;2023-03-23T03:48:16;4.35;;;2.03;;
31594;SDS011;18200;48.726;8.892;2023-03-23T03:52:17;2.67;;;2.10;;
31594;SDS011;18200;48.726;8.892;2023-03-23T03:56:17;3.20;;;1.92;;
31594;SDS011;18200;48.726;8.892;2023-03-23T04:00:26;3.90;;;2.10;;
31594;SDS011;18200;48.726;8.892;2023-03-23T04:04:26;4.25;;;2.40;;
31594;SDS011;18200;48.726;8.892;2023-03-23T04:08:26;3.25;;;2.40;;
31594;SDS011;18200;48.726;8.892;2023-03-23T04:12:28;4.40;;;2.17;;
31594;SDS011;18200;48.726;8.892;2023-03-23T04:16:31;2.92;;;1.90;;
31594;SDS011;18200;48.726;8.892;2023-03-23T04:20:34;3.28;;;2.03;;
31594;SDS011;18200;48.726;8.892;2023-03-23T04:24:35;3.00;;;2.13;;
31594;SDS011;18200;48.726;8.892;2023-03-23T04:28:39;4.70;;;2.05;;
31594;SDS011;18200;48.726;8.892;2023-03-23T04:33:16;6.30;;;2.30;;
31594;SDS011;18200;48.726;8.892;2023-03-23T04:41:25;4.15;;;2.13;;
31594;SDS011;18200;48.726;8.892;2023-03-23T04:45:56;4.32;;;2.50;;
31594;SDS011;18200;48.726;8.892;2023-03-23T04:49:59;3.42;;;2.17;;
31594;SDS011;18200;48.726;8.892;2023-03-23T04:54:08;3.53;;;2.13;;
31594;SDS011;18200;48.726;8.892;2023-03-23T04:58:10;2.92;;;2.05;;
31594;SDS011;18200;48.726;8.892;2023-03-23T05:02:18;2.85;;;2.05;;
31594;SDS011;18200;48.726;8.892;2023-03-23T05:06:20;4.28;;;2.35;;
31594;SDS011;18200;48.726;8.892;2023-03-23T05:10:23;3.53;;;2.35;;
31594;SDS011;18200;48.726;8.892;2023-03-23T05:14:26;5.68;;;2.20;;
31594;SDS011;18200;48.726;8.892;2023-03-23T05:18:36;5.07;;;2.10;;
31594;SDS011;18200;48.726;8.892;2023-03-23T05:22:43;3.38;;;2.00;;
31594;SDS011;18200;48.726;8.892;2023-03-23T05:26:45;4.15;;;2.00;;
31594;SDS011;18200;48.726;8.892;2023-03-23T05:30:52;4.68;;;1.80;;
31594;SDS011;18200;48.726;8.892;2023-03-23T05:34:55;2.67;;;1.80;;
31594;SDS011;18200;48.726;8.892;2023-03-23T05:38:57;5.30;;;1.73;;
31594;SDS011;18200;48.726;8.892;2023-03-23T05:43:01;3.08;;;2.15;;
31594;SDS011;18200;48.726;8.892;2023-03-23T05:47:13;5.78;;;3.10;;
31594;SDS011;18200;48.726;8.892;2023-03-23T05:51:19;4.43;;;2.25;;
31594;SDS011;18200;48.726;8.892;2023-03-23T05:55:20;4.28;;;2.60;;
31594;SDS011;18200;48.726;8.892;2023-03-23T05:59:28;4.15;;;2.17;;
31594;SDS011;18200;48.726;8.892;2023-03-23T06:03:30;5.28;;;1.73;;
31594;SDS011;18200;48.726;8.892;2023-03-23T06:07:40;2.45;;;1.60;;
31594;SDS011;18200;48.726;8.892;2023-03-23T06:11:40;3.42;;;2.10;;
31594;SDS011;18200;48.726;8.892;2023-03-23T06:16:03;3.58;;;2.50;;
31594;SDS011;18200;48.726;8.892;2023-03-23T06:20:25;5.47;;;3.15;;
31594;SDS011;18200;48.726;8.892;2023-03-23T06:24:27;5.97;;;2.17;;
31594;SDS011;18200;48.726;8.892;2023-03-23T06:28:27;4.20;;;2.17;;
31594;SDS011;18200;48.726;8.892;2023-03-23T06:32:29;3.58;;;1.55;;
31594;SDS011;18200;48.726;8.892;2023-03-23T06:36:31;3.65;;;2.20;;
31594;SDS011;18200;48.726;8.892;2023-03-23T06:40:43;3.60;;;1.95;;
31594;SDS011;18200;48.726;8.892;2023-03-23T06:44:47;5.80;;;2.10;;
31594;SDS011;18200;48.726;8.892;2023-03-23T06:48:48;2.97;;;2.28;;
31594;SDS011;18200;48.726;8.892;2023-03-23T06:52:53;2.97;;;1.65;;
31594;SDS011;18200;48.726;8.892;2023-03-23T06:56:54;6.43;;;2.75;;
31594;SDS011;18200;48.726;8.892;2023-03-23T07:00:55;5.22;;;2.60;;
31594;SDS011;18200;48.726;8.892;2023-03-23T07:05:12;5.13;;;2.80;;
31594;SDS011;18200;48.726;8.892;2023-03-23T07:09:14;4.28;;;2.22;;
31594;SDS011;18200;48.726;8.892;2023-03-23T07:13:15;4.45;;;1.83;;
31594;SDS011;18200;48.726;8.892;2023-03-23T07:17:23;4.63;;;1.88;;
31594;SDS011;18200;48.726;8.892;2023-03-23T07:21:36;2.55;;;1.70;;
31594;SDS011;18200;48.726;8.892;2023-03-23T07:25:37;3.10;;;2.20;;
31594;SDS011;18200;48.726;8.892;2023-03-23T07:29:37;3.22;;;2.20;;
31594;SDS011;18200;48.726;8.892;2023-03-23T07:33:47;4.55;;;1.92;;
31594;SDS011;18200;48.726;8.892;2023-03-23T07:37:48;4.60;;;2.10;;
31594;SDS011;18200;48.726;8.892;2023-03-23T07:41:50;8.32;;;2.05;;
31594;SDS011;18200;48.726;8.892;2023-03-23T07:46:03;3.55;;;2.10;;
31594;SDS011;18200;48.726;8.892;2023-03-23T07:50:13;3.58;;;1.75;;
31594;SDS011;18200;48.726;8.892;2023-03-23T07:54:16;2.50;;;1.70;;
31594;SDS011;18200;48.726;8.892;2023-03-23T07:58:38;3.83;;;1.90;;
31594;SDS011;18200;48.726;8.892;2023-03-23T08:02:39;3.55;;;2.33;;
31594;SDS011;18200;48.726;8.892;2023-03-23T08:07:07;2.75;;;1.90;;
31594;SDS011;18200;48.726;8.892;2023-03-23T08:11:20;3.22;;;2.15;;
31594;SDS011;18200;48.726;8.892;2023-03-23T08:15:41;5.55;;;2.28;;
31594;SDS011;18200;48.726;8.892;2023-03-23T08:19:52;4.15;;;1.98;;
31594;SDS011;18200;48.726;8.892;2023-03-23T08:24:11;4.60;;;2.08;;
31594;SDS011;18200;48.726;8.892;2023-03-23T08:28:29;5.65;;;2.13;;
31594;SDS011;18200;48.726;8.892;2023-03-23T08:33:01;2.95;;;2.10;;
31594;SDS011;18200;48.726;8.892;2023-03-23T08:37:22;4.85;;;1.90;;
31594;SDS011;18200;48.726;8.892;2023-03-23T08:41:29;3.63;;;2.22;;
31594;SDS011;18200;48.726;8.892;2023-03-23T08:45:53;4.07;;;2.15;;
31594;SDS011;18200;48.726;8.892;2023-03-23T08:50:19;2.15;;;1.70;;
31594;SDS011;18200;48.726;8.892;2023-03-23T08:54:43;4.05;;;2.10;;
31594;SDS011;18200;48.726;8.892;2023-03-23T08:59:22;3.85;;;2.03;;
31594;SDS011;18200;48.726;8.892;2023-03-23T09:03:49;4.90;;;2.17;;
31594;SDS011;18200;48.726;8.892;2023-03-23T09:07:57;6.32;;;2.00;;
31594;SDS011;18200;48.726;8.892;2023-03-23T09:11:59;3.33;;;2.05;;
31594;SDS011;18200;48.726;8.892;2023-03-23T09:15:59;6.43;;;2.30;;
31594;SDS011;18200;48.726;8.892;2023-03-23T09:20:00;5.18;;;2.20;;
31594;SDS011;18200;48.726;8.892;2023-03-23T09:24:01;3.72;;;2.40;;
31594;SDS011;18200;48.726;8.892;2023-03-23T09:28:01;5.18;;;2.63;;
31594;SDS011;18200;48.726;8.892;2023-03-23T09:32:02;2.33;;;1.92;;
31594;SDS011;18200;48.726;8.892;2023-03-23T09:36:03;4.97;;;2.25;;
31594;SDS011;18200;48.726;8.892;2023-03-23T09:40:06;3.50;;;1.88;;
31594;SDS011;18200;48.726;8.892;2023-03-23T09:48:57;5.07;;;2.08;;
31594;SDS011;18200;48.726;8.892;2023-03-23T09:53:00;4.65;;;2.15;;
31594;SDS011;18200;48.726;8.892;2023-03-23T09:57:24;5.10;;;1.80;;
31594;SDS011;18200;48.726;8.892;2023-03-23T10:06:08;5.10;;;2.38;;
31594;SDS011;18200;48.726;8.892;2023-03-23T10:10:01;6.85;;;1.92;;
31594;SDS011;18200;48.726;8.892;2023-03-23T10:18:41;6.00;;;1.85;;
31594;SDS011;18200;48.726;8.892;2023-03-23T10:22:50;3.42;;;2.40;;
31594;SDS011;18200;48.726;8.892;2023-03-23T10:31:17;6.65;;;2.58;;
31594;SDS011;18200;48.726;8.892;2023-03-23T10:35:32;3.17;;;1.90;;
31594;SDS011;18200;48.726;8.892;2023-03-23T10:40:05;4.60;;;2.15;;
31594;SDS011;18200;48.726;8.892;2023-03-23T10:44:19;3.72;;;2.17;;
31594;SDS011;18200;48.726;8.892;2023-03-23T10:48:24;3.47;;;1.95;;
31594;SDS011;18200;48.726;8.892;2023-03-23T10:52:36;3.47;;;2.00;;
31594;SDS011;18200;48.726;8.892;2023-03-23T10:56:40;4.57;;;2.25;;
31594;SDS011;18200;48.726;8.892;2023-03-23T11:00:45;4.97;;;2.30;;
31594;SDS011;18200;48.726;8.892;2023-03-23T11:04:58;5.57;;;2.40;;
31594;SDS011;18200;48.726;8.892;2023-03-23T11:09:03;5.90;;;2.30;;
31594;SDS011;18200;48.726;8.892;2023-03-23T11:13:12;4.95;;;2.20;;
31594;SDS011;18200;48.726;8.892;2023-03-23T11:17:24;4.78;;;2.00;;
31594;SDS011;18200;48.726;8.892;2023-03-23T11:21:26;3.50;;;2.05;;
31594;SDS011;18200;48.726;8.892;2023-03-23T11:25:27;4.45;;;2.33;;
31594;SDS011;18200;48.726;8.892;2023-03-23T11:29:28;4.20;;;2.17;;
31594;SDS011;18200;48.726;8.892;2023-03-23T11:33:35;6.22;;;2.47;;
31594;SDS011;18200;48.726;8.892;2023-03-23T11:37:42;4.95;;;2.22;;
31594;SDS011;18200;48.726;8.892;2023-03-23T11:41:45;3.67;;;2.20;;
31594;SDS011;18200;48.726;8.892;2023-03-23T11:54:31;2.85;;;2.05;;
31594;SDS011;18200;48.726;8.892;2023-03-23T11:58:34;2.70;;;1.98;;
31594;SDS011;18200;48.726;8.892;2023-03-23T12:02:42;4.50;;;2.15;;
31594;SDS011;18200;48.726;8.892;2023-03-23T12:11:55;2.40;;;1.85;;
31594;SDS011;18200;48.726;8.892;2023-03-23T12:55:45;5.60;;;2.30;;
31594;SDS011;18200;48.726;8.892;2023-03-23T12:59:49;3.92;;;2.25;;
31594;SDS011;18200;48.726;8.892;2023-03-23T13:08:01;3.65;;;1.98;;
31594;SDS011;18200;48.726;8.892;2023-03-23T13:12:07;6.30;;;2.10;;
31594;SDS011;18200;48.726;8.892;2023-03-23T13:16:13;3.33;;;2.17;;
31594;SDS011;18200;48.726;8.892;2023-03-23T13:20:32;6.18;;;2.22;;
31594;SDS011;18200;48.726;8.892;2023-03-23T13:24:57;4.40;;;1.90;;
31594;SDS011;18200;48.726;8.892;2023-03-23T13:29:06;3.75;;;2.13;;
31594;SDS011;18200;48.726;8.892;2023-03-23T13:33:13;5.50;;;2.42;;
31594;SDS011;18200;48.726;8.892;2023-03-23T13:41:20;3.85;;;2.42;;
31594;SDS011;18200;48.726;8.892;2023-03-23T13:49:24;5.07;;;2.40;;
31594;SDS011;18200;48.726;8.892;2023-03-23T13:53:27;4.60;;;2.45;;
31594;SDS011;18200;48.726;8.892;2023-03-23T14:01:57;5.53;;;2.42;;
31594;SDS011;18200;48.726;8.892;2023-03-23T14:06:36;3.38;;;2.30;;
31594;SDS011;18200;48.726;8.892;2023-03-23T14:10:51;4.80;;;2.50;;
31594;SDS011;18200;48.726;8.892;2023-03-23T14:14:56;4.70;;;2.15;;
31594;SDS011;18200;48.726;8.892;2023-03-23T14:19:15;5.03;;;2.10;;
31594;SDS011;18200;48.726;8.892;2023-03-23T14:23:19;4.70;;;2.30;;
31594;SDS011;18200;48.726;8.892;2023-03-23T14:27:20;5.30;;;2.38;;
31594;SDS011;18200;48.726;8.892;2023-03-23T14:31:26;4.00;;;2.30;;
31594;SDS011;18200;48.726;8.892;2023-03-23T14:35:30;4.53;;;2.10;;
31594;SDS011;18200;48.726;8.892;2023-03-23T14:39:32;4.28;;;2.00;;
31594;SDS011;18200;48.726;8.892;2023-03-23T14:43:35;2.92;;;1.92;;
31594;SDS011;18200;48.726;8.892;2023-03-23T14:47:38;4.18;;;2.47;;
31594;SDS011;18200;48.726;8.892;2023-03-23T14:51:47;4.10;;;2.38;;
31594;SDS011;18200;48.726;8.892;2023-03-23T14:55:53;5.93;;;2.30;;
31594;SDS011;18200;48.726;8.892;2023-03-23T14:59:55;4.20;;;2.28;;
31594;SDS011;18200;48.726;8.892;2023-03-23T15:04:16;3.90;;;1.95;;
31594;SDS011;18200;48.726;8.892;2023-03-23T15:08:20;4.15;;;2.17;;
31594;SDS011;18200;48.726;8.892;2023-03-23T15:12:33;4.90;;;2.20;;
31594;SDS011;18200;48.726;8.892;2023-03-23T15:16:35;3.78;;;2.05;;
31594;SDS011;18200;48.726;8.892;2023-03-23T15:24:42;4.43;;;2.60;;
31594;SDS011;18200;48.726;8.892;2023-03-23T15:28:44;4.28;;;2.08;;
31594;SDS011;18200;48.726;8.892;2023-03-23T15:32:44;7.00;;;2.58;;
31594;SDS011;18200;48.726;8.892;2023-03-23T15:36:45;4.28;;;2.25;;
31594;SDS011;18200;48.726;8.892;2023-03-23T15:40:48;3.92;;;2.42;;
31594;SDS011;18200;48.726;8.892;2023-03-23T15:45:16;3.80;;;2.55;;
31594;SDS011;18200;48.726;8.892;2023-03-23T15:49:23;4.85;;;2.75;;
31594;SDS011;18200;48.726;8.892;2023-03-23T15:53:29;3.03;;;2.15;;
31594;SDS011;18200;48.726;8.892;2023-03-23T15:57:34;6.60;;;2.38;;
31594;SDS011;18200;48.726;8.892;2023-03-23T16:01:36;4.05;;;2.20;;
31594;SDS011;18200;48.726;8.892;2023-03-23T16:05:38;4.25;;;2.15;;
31594;SDS011;18200;48.726;8.892;2023-03-23T16:09:39;5.35;;;2.53;;
31594;SDS011;18200;48.726;8.892;2023-03-23T16:13:43;5.50;;;3.03;;
31594;SDS011;18200;48.726;8.892;2023-03-23T16:17:44;6.80;;;2.20;;
31594;SDS011;18200;48.726;8.892;2023-03-23T16:21:48;4.88;;;2.20;;
31594;SDS011;18200;48.726;8.892;2023-03-23T16:25:48;3.78;;;2.47;;
31594;SDS011;18200;48.726;8.892;2023-03-23T16:29:49;3.80;;;2.10;;
31594;SDS011;18200;48.726;8.892;2023-03-23T16:33:49;3.55;;;2.30;;
31594;SDS011;18200;48.726;8.892;2023-03-23T16:37:51;5.43;;;2.85;;
31594;SDS011;18200;48.726;8.892;2023-03-23T16:41:53;4.47;;;2.75;;
31594;SDS011;18200;48.726;8.892;2023-03-23T16:45:54;5.30;;;2.90;;
31594;SDS011;18200;48.726;8.892;2023-03-23T16:49:55;5.18;;;3.30;;
31594;SDS011;18200;48.726;8.892;2023-03-23T16:53:55;4.18;;;2.50;;
31594;SDS011;18200;48.726;8.892;2023-03-23T16:57:56;6.00;;;2.92;;
31594;SDS011;18200;48.726;8.892;2023-03-23T17:01:57;2.90;;;2.20;;
31594;SDS011;18200;48.726;8.892;2023-03-23T17:06:02;4.22;;;2.30;;
31594;SDS011;18200;48.726;8.892;2023-03-23T17:10:04;3.80;;;2.30;;
31594;SDS011;18200;48.726;8.892;2023-03-23T17:14:05;3.15;;;2.10;;
31594;SDS011;18200;48.726;8.892;2023-03-23T17:18:06;4.50;;;2.25;;
31594;SDS011;18200;48.726;8.892;2023-03-23T17:22:07;4.72;;;2.25;;
31594;SDS011;18200;48.726;8.892;2023-03-23T17:26:07;5.20;;;2.08;;
31594;SDS011;18200;48.726;8.892;2023-03-23T17:30:08;4.50;;;2.20;;
31594;SDS011;18200;48.726;8.892;2023-03-23T17:34:09;5.20;;;4.45;;
31594;SDS011;18200;48.726;8.892;2023-03-23T17:38:09;3.35;;;2.20;;
31594;SDS011;18200;48.726;8.892;2023-03-23T17:42:10;6.68;;;3.90;;
31594;SDS011;18200;48.726;8.892;2023-03-23T17:46:10;4.72;;;2.60;;
31594;SDS011;18200;48.726;8.892;2023-03-23T17:50:11;6.70;;;2.90;;
31594;SDS011;18200;48.726;8.892;2023-03-23T17:54:12;6.03;;;3.53;;
31594;SDS011;18200;48.726;8.892;2023-03-23T17:58:12;11.90;;;5.57;;
31594;SDS011;18200;48.726;8.892;2023-03-23T18:02:12;9.35;;;4.35;;
31594;SDS011;18200;48.726;8.892;2023-03-23T18:06:13;7.45;;;4.63;;
31594;SDS011;18200;48.726;8.892;2023-03-23T18:10:13;5.82;;;4.10;;
31594;SDS011;18200;48.726;8.892;2023-03-23T18:14:15;7.90;;;4.88;;
31594;SDS011;18200;48.726;8.892;2023-03-23T18:18:15;5.80;;;3.30;;
31594;SDS011;18200;48.726;8.892;2023-03-23T18:22:16;3.97;;;3.20;;
31594;SDS011;18200;48.726;8.892;2023-03-23T18:26:16;4.25;;;2.60;;
31594;SDS011;18200;48.726;8.892;2023-03-23T18:30:16;6.05;;;2.50;;
31594;SDS011;18200;48.726;8.892;2023-03-23T18:34:17;8.27;;;4.13;;
31594;SDS011;18200;48.726;8.892;2023-03-23T18:38:17;4.70;;;2.50;;
31594;SDS011;18200;48.726;8.892;2023-03-23T18:42:18;5.55;;;2.78;;
31594;SDS011;18200;48.726;8.892;2023-03-23T18:46:18;4.97;;;2.55;;
31594;SDS011;18200;48.726;8.892;2023-03-23T18:50:19;4.30;;;2.38;;
31594;SDS011;18200;48.726;8.892;2023-03-23T18:54:20;3.95;;;2.50;;
31594;SDS011;18200;48.726;8.892;2023-03-23T18:58:20;4.32;;;2.70;;
31594;SDS011;18200;48.726;8.892;2023-03-23T19:02:20;6.30;;;3.47;;
31594;SDS011;18200;48.726;8.892;2023-03-23T19:06:22;4.10;;;2.42;;
31594;SDS011;18200;48.726;8.892;2023-03-23T19:10:25;3.67;;;2.60;;
31594;SDS011;18200;48.726;8.892;2023-03-23T19:14:26;4.65;;;3.15;;
31594;SDS011;18200;48.726;8.892;2023-03-23T19:18:27;3.67;;;2.60;;
31594;SDS011;18200;48.726;8.892;2023-03-23T19:22:27;3.50;;;2.67;;
31594;SDS011;18200;48.726;8.892;2023-03-23T19:26:35;4.65;;;3.03;;
31594;SDS011;18200;48.726;8.892;2023-03-23T19:30:45;5.63;;;3.10;;
31594;SDS011;18200;48.726;8.892;2023-03-23T19:34:46;4.80;;;2.70;;
31594;SDS011;18200;48.726;8.892;2023-03-23T19:38:47;7.70;;;2.95;;
31594;SDS011;18200;48.726;8.892;2023-03-23T19:42:48;6.00;;;2.60;;
31594;SDS011;18200;48.726;8.892;2023-03-23T19:46:48;6.18;;;2.85;;
31594;SDS011;18200;48.726;8.892;2023-03-23T19:50:49;6.13;;;2.95;;
31594;SDS011;18200;48.726;8.892;2023-03-23T19:54:52;5.22;;;2.83;;
31594;SDS011;18200;48.726;8.892;2023-03-23T19:58:53;4.60;;;2.50;;
31594;SDS011;18200;48.726;8.892;2023-03-23T20:02:53;8.35;;;3.35;;
31594;SDS011;18200;48.726;8.892;2023-03-23T20:06:54;4.18;;;2.90;;
31594;SDS011;18200;48.726;8.892;2023-03-23T20:11:06;5.28;;;2.90;;
31594;SDS011;18200;48.726;8.892;2023-03-23T20:15:08;5.55;;;2.90;;
31594;SDS011;18200;48.726;8.892;2023-03-23T20:19:09;7.35;;;2.92;;
31594;SDS011;18200;48.726;8.892;2023-03-23T20:23:09;5.50;;;3.30;;
31594;SDS011;18200;48.726;8.892;2023-03-23T20:27:09;5.80;;;3.15;;
31594;SDS011;18200;48.726;8.892;2023-03-23T20:35:13;4.32;;;3.00;;
31594;SDS011;18200;48.726;8.892;2023-03-23T20:39:15;5.55;;;2.90;;
31594;SDS011;18200;48.726;8.892;2023-03-23T20:43:23;5.05;;;3.00;;
31594;SDS011;18200;48.726;8.892;2023-03-23T20:47:28;4.32;;;3.25;;
31594;SDS011;18200;48.726;8.892;2023-03-23T20:51:28;5.65;;;3.58;;
31594;SDS011;18200;48.726;8.892;2023-03-23T20:55:29;4.63;;;3.42;;
31594;SDS011;18200;48.726;8.892;2023-03-23T20:59:29;5.72;;;3.22;;
31594;SDS011;18200;48.726;8.892;2023-03-23T21:03:34;4.88;;;3.08;;
31594;SDS011;18200;48.726;8.892;2023-03-23T21:07:37;4.57;;;3.15;;
31594;SDS011;18200;48.726;8.892;2023-03-23T21:11:38;4.82;;;3.28;;
31594;SDS011;18200;48.726;8.892;2023-03-23T21:15:39;4.80;;;2.80;;
31594;SDS011;18200;48.726;8.892;2023-03-23T21:19:39;4.88;;;2.95;;
31594;SDS011;18200;48.726;8.892;2023-03-23T21:23:40;5.50;;;2.90;;
31594;SDS011;18200;48.726;8.892;2023-03-23T21:27:45;6.18;;;3.75;;
31594;SDS011;18200;48.726;8.892;2023-03-23T21:31:46;6.40;;;3.17;;
31594;SDS011;18200;48.726;8.892;2023-03-23T21:35:46;5.40;;;3.22;;
31594;SDS011;18200;48.726;8.892;2023-03-23T21:39:46;9.73;;;4.13;;
31594;SDS011;18200;48.726;8.892;2023-03-23T21:43:47;9.85;;;3.97;;
31594;SDS011;18200;48.726;8.892;2023-03-23T21:47:49;4.85;;;3.33;;
31594;SDS011;18200;48.726;8.892;2023-03-23T21:51:56;7.93;;;4.10;;
31594;SDS011;18200;48.726;8.892;2023-03-23T21:55:56;6.85;;;4.35;;
31594;SDS011;18200;48.726;8.892;2023-03-23T21:59:57;8.05;;;4.05;;
31594;SDS011;18200;48.726;8.892;2023-03-23T22:03:58;9.02;;;3.58;;
31594;SDS011;18200;48.726;8.892;2023-03-23T22:07:58;6.75;;;3.55;;
31594;SDS011;18200;48.726;8.892;2023-03-23T22:11:59;8.48;;;4.22;;
31594;SDS011;18200;48.726;8.892;2023-03-23T22:16:00;5.50;;;3.60;;
31594;SDS011;18200;48.726;8.892;2023-03-23T22:20:03;6.47;;;3.58;;
31594;SDS011;18200;48.726;8.892;2023-03-23T22:24:05;6.35;;;3.72;;
31594;SDS011;18200;48.726;8.892;2023-03-23T22:28:05;5.70;;;3.60;;
31594;SDS011;18200;48.726;8.892;2023-03-23T22:32:06;5.75;;;3.22;;
31594;SDS011;18200;48.726;8.892;2023-03-23T22:36:06;7.18;;;3.60;;
31594;SDS011;18200;48.726;8.892;2023-03-23T22:40:07;7.65;;;3.63;;
31594;SDS011;18200;48.726;8.892;2023-03-23T22:44:10;5.47;;;3.35;;
31594;SDS011;18200;48.726;8.892;2023-03-23T22:48:13;5.05;;;3.47;;
31594;SDS011;18200;48.726;8.892;2023-03-23T22:52:14;6.43;;;3.30;;
31594;SDS011;18200;48.726;8.892;2023-03-23T22:56:14;7.00;;;3.40;;
31594;SDS011;18200;48.726;8.892;2023-03-23T23:00:15;6.18;;;3.55;;
31594;SDS011;18200;48.726;8.892;2023-03-23T23:04:17;6.95;;;4.25;;
31594;SDS011;18200;48.726;8.892;2023-03-23T23:08:18;4.93;;;3.30;;
31594;SDS011;18200;48.726;8.892;2023-03-23T23:12:19;5.07;;;3.22;;
31594;SDS011;18200;48.726;8.892;2023-03-23T23:16:21;5.28;;;3.65;;
31594;SDS011;18200;48.726;8.892;2023-03-23T23:20:23;4.53;;;3.55;;
31594;SDS011;18200;48.726;8.892;2023-03-23T23:24:23;6.03;;;3.35;;
31594;SDS011;18200;48.726;8.892;2023-03-23T23:28:25;6.65;;;3.25;;
31594;SDS011;18200;48.726;8.892;2023-03-23T23:32:26;6.15;;;3.92;;
31594;SDS011;18200;48.726;8.892;2023-03-23T23:40:32;7.97;;;3.60;;
31594;SDS011;18200;48.726;8.892;2023-03-23T23:44:34;8.30;;;4.07;;
31594;SDS011;18200;48.726;8.892;2023-03-23T23:48:35;5.45;;;3.78;;
31594;SDS011;18200;48.726;8.892;2023-03-23T23:52:35;5.40;;;3.88;;
31594;SDS011;18200;48.726;8.892;2023-03-23T23:56:37;5.40;;;3.97;;
